Time;durP1;ratioP1;P1;durP2;ratioP2;P2;SDS_P1;SDS_P2;PMS_P1;PMS_P2;Temp;Humidity;BMP_temperature;BMP_pressure;BME280_temperature;BME280_humidity;BME280_pressure;Samples;Min_cycle;Max_cycle;Signal;HPM_P1;HPM_P2
2022/02/08 00:02:01;;;;;;;26.30;15.97;;;;;;;;;;6192496;23;20529;-86
2022/02/08 00:04:29;;;;;;;22.20;14.53;;;;;;;;;;6211868;23;20181;-86
2022/02/08 00:06:57;;;;;;;25.43;14.53;;;;;;;;;;6211925;23;20174;-86
2022/02/08 00:09:25;;;;;;;17.93;13.47;;;;;;;;;;6211807;23;20665;-86
2022/02/08 00:11:53;;;;;;;21.90;13.10;;;;;;;;;;6241331;22;20507;-86
2022/02/08 00:14:20;;;;;;;20.47;14.27;;;;;;;;;;6338806;22;20176;-86
2022/02/08 00:16:49;;;;;;;24.10;16.57;;;;;;;;;;6338207;22;20184;-86
2022/02/08 00:19:16;;;;;;;25.73;16.27;;;;;;;;;;6337237;22;20246;-86
2022/02/08 00:21:43;;;;;;;24.23;15.80;;;;;;;;;;6337926;22;20173;-86
2022/02/08 00:24:10;;;;;;;26.20;15.63;;;;;;;;;;6337755;22;20220;-86
2022/02/08 00:26:38;;;;;;;23.40;15.17;;;;;;;;;;6337993;22;20183;-86
2022/02/08 00:29:05;;;;;;;29.87;15.77;;;;;;;;;;6337711;22;20185;-86
2022/02/08 00:31:33;;;;;;;26.33;15.37;;;;;;;;;;6337907;22;20642;-86
2022/02/08 00:34:01;;;;;;;28.63;14.77;;;;;;;;;;6336989;22;20191;-86
2022/02/08 00:36:28;;;;;;;27.83;14.40;;;;;;;;;;6338128;22;20204;-86
2022/02/08 00:38:56;;;;;;;25.90;15.07;;;;;;;;;;6337734;22;20212;-86
2022/02/08 00:41:25;;;;;;;25.37;15.53;;;;;;;;;;6337523;22;20264;-86
2022/02/08 00:43:58;;;;;;;26.90;16.40;;;;;;;;;;6338039;22;20243;-86
2022/02/08 00:46:32;;;;;;;27.70;16.87;;;;;;;;;;6337426;22;20179;-86
2022/02/08 00:49:01;;;;;;;26.13;16.53;;;;;;;;;;6337308;22;20244;-86
2022/02/08 00:51:39;;;;;;;26.37;16.63;;;;;;;;;;6337446;22;20638;-86
2022/02/08 00:54:06;;;;;;;30.50;16.77;;;;;;;;;;6337393;22;20202;-86
2022/02/08 00:56:34;;;;;;;32.10;15.87;;;;;;;;;;6337838;22;20176;-86
2022/02/08 00:59:01;;;;;;;36.20;16.13;;;;;;;;;;6337790;22;20192;-86
2022/02/08 01:01:30;;;;;;;29.67;14.93;;;;;;;;;;6337698;22;20194;-86
2022/02/08 01:03:57;;;;;;;40.57;14.53;;;;;;;;;;6337347;22;20192;-86
2022/02/08 01:06:24;;;;;;;35.20;15.37;;;;;;;;;;6337851;22;20492;-86
2022/02/08 01:09:05;;;;;;;30.37;15.27;;;;;;;;;;6337936;22;20169;-86
2022/02/08 01:11:32;;;;;;;56.33;16.13;;;;;;;;;;6337645;22;20190;-86
2022/02/08 01:13:59;;;;;;;38.13;14.93;;;;;;;;;;6337812;22;20221;-86
2022/02/08 01:16:26;;;;;;;52.83;16.50;;;;;;;;;;6337115;22;20173;-86
2022/02/08 01:18:56;;;;;;;34.20;15.30;;;;;;;;;;6337105;22;20188;-86
2022/02/08 01:21:24;;;;;;;48.87;14.63;;;;;;;;;;6325093;22;20235;-86
2022/02/08 01:23:53;;;;;;;59.33;15.63;;;;;;;;;;6337379;22;20202;-86
2022/02/08 01:26:20;;;;;;;32.63;13.87;;;;;;;;;;6337090;22;20510;-87
2022/02/08 01:28:54;;;;;;;35.03;14.40;;;;;;;;;;6337490;22;20243;-86
2022/02/08 01:31:22;;;;;;;38.67;14.47;;;;;;;;;;6336664;22;20176;-86
2022/02/08 01:36:44;;;;;;;43.70;15.50;;;;;;;;;;6337541;22;20505;-86
2022/02/08 01:39:22;;;;;;;47.43;15.00;;;;;;;;;;6337551;22;20185;-86
2022/02/08 01:44:42;;;;;;;45.63;16.10;;;;;;;;;;6321004;22;20171;-86
2022/02/08 01:47:21;;;;;;;46.07;15.80;;;;;;;;;;6337916;22;20170;-86
2022/02/08 01:50:06;;;;;;;56.43;16.00;;;;;;;;;;6337866;22;20168;-85
2022/02/08 01:52:34;;;;;;;46.77;15.23;;;;;;;;;;6337686;22;20179;-86
2022/02/08 01:55:02;;;;;;;43.30;15.07;;;;;;;;;;6337418;22;20239;-86
2022/02/08 01:57:29;;;;;;;46.70;14.83;;;;;;;;;;6337366;22;20207;-86
2022/02/08 01:59:57;;;;;;;56.67;14.87;;;;;;;;;;6337669;22;20249;-86
2022/02/08 02:02:24;;;;;;;37.23;13.77;;;;;;;;;;6337119;22;20201;-86
2022/02/08 02:04:52;;;;;;;42.33;13.70;;;;;;;;;;6337785;22;20176;-86
2022/02/08 02:07:19;;;;;;;49.00;14.03;;;;;;;;;;6337335;22;20208;-86
2022/02/08 02:09:47;;;;;;;46.07;12.87;;;;;;;;;;6337405;22;20179;-86
2022/02/08 02:12:15;;;;;;;51.07;13.20;;;;;;;;;;6337956;22;20169;-86
2022/02/08 02:14:43;;;;;;;39.27;12.90;;;;;;;;;;6336837;22;20685;-85
2022/02/08 02:17:11;;;;;;;42.20;12.80;;;;;;;;;;6337638;22;20176;-86
2022/02/08 02:19:40;;;;;;;41.70;13.53;;;;;;;;;;6336964;22;20726;-86
2022/02/08 02:22:09;;;;;;;52.30;13.10;;;;;;;;;;6337052;22;20279;-86
2022/02/08 02:24:38;;;;;;;33.83;12.77;;;;;;;;;;6337207;22;20254;-86
2022/02/08 02:27:05;;;;;;;41.33;12.50;;;;;;;;;;6337485;22;20696;-86
2022/02/08 02:29:33;;;;;;;33.53;12.70;;;;;;;;;;6338364;22;20176;-86
2022/02/08 02:32:01;;;;;;;38.73;12.27;;;;;;;;;;6339121;22;20199;-86
2022/02/08 02:34:29;;;;;;;39.20;12.37;;;;;;;;;;6311982;22;20176;-86
2022/02/08 02:36:58;;;;;;;34.83;11.80;;;;;;;;;;6338770;22;20199;-87
2022/02/08 02:39:26;;;;;;;44.47;13.07;;;;;;;;;;6339275;22;20193;-87
2022/02/08 02:41:55;;;;;;;34.77;11.93;;;;;;;;;;6338671;22;20172;-86
2022/02/08 02:44:24;;;;;;;26.80;11.43;;;;;;;;;;6339001;22;20221;-86
2022/02/08 02:46:51;;;;;;;23.43;11.67;;;;;;;;;;6311991;22;20172;-86
2022/02/08 02:49:19;;;;;;;43.60;12.90;;;;;;;;;;6339645;22;20180;-86
2022/02/08 02:51:46;;;;;;;27.83;11.53;;;;;;;;;;6340656;22;20166;-86
2022/02/08 02:54:14;;;;;;;35.23;12.07;;;;;;;;;;6340698;22;20661;-87
2022/02/08 02:56:42;;;;;;;33.30;13.23;;;;;;;;;;6339224;22;20184;-86
2022/02/08 02:59:10;;;;;;;30.23;12.83;;;;;;;;;;6338018;22;20210;-86
2022/02/08 03:01:46;;;;;;;35.90;13.10;;;;;;;;;;6339124;22;20173;-86
2022/02/08 03:04:29;;;;;;;30.47;12.30;;;;;;;;;;6338400;22;20496;-86
2022/02/08 03:20:53;;;;;;;32.53;12.53;;;;;;;;;;6338799;22;20570;-87
2022/02/08 03:23:20;;;;;;;25.13;13.17;;;;;;;;;;6338372;22;20576;-86
2022/02/08 03:25:47;;;;;;;33.27;13.20;;;;;;;;;;6338736;22;20176;-86
2022/02/08 03:28:14;;;;;;;25.00;13.03;;;;;;;;;;6337860;22;20170;-87
2022/02/08 03:30:43;;;;;;;24.37;12.00;;;;;;;;;;6338574;22;20241;-87
2022/02/08 03:33:10;;;;;;;27.17;12.30;;;;;;;;;;6338328;22;20165;-86
2022/02/08 03:35:37;;;;;;;19.77;11.13;;;;;;;;;;6338411;22;20174;-87
2022/02/08 03:38:07;;;;;;;19.30;12.30;;;;;;;;;;6338562;22;20176;-87
2022/02/08 03:40:41;;;;;;;24.83;11.93;;;;;;;;;;6338536;22;20666;-86
2022/02/08 03:43:16;;;;;;;29.47;13.47;;;;;;;;;;6337734;22;20279;-87
2022/02/08 03:45:49;;;;;;;26.67;13.20;;;;;;;;;;6338422;22;20172;-86
2022/02/08 03:48:18;;;;;;;21.93;11.33;;;;;;;;;;6310102;22;20535;-87
2022/02/08 03:50:52;;;;;;;27.63;12.47;;;;;;;;;;6338382;22;20163;-86
2022/02/08 03:53:19;;;;;;;34.37;12.67;;;;;;;;;;6338110;22;20172;-86
2022/02/08 03:55:46;;;;;;;28.33;15.00;;;;;;;;;;6338865;22;20200;-86
2022/02/08 03:58:14;;;;;;;27.83;14.10;;;;;;;;;;6337790;22;20235;-86
2022/02/08 04:00:53;;;;;;;26.27;13.17;;;;;;;;;;6337916;22;20189;-86
2022/02/08 04:03:24;;;;;;;25.23;13.27;;;;;;;;;;6338139;22;20219;-86
2022/02/08 04:05:53;;;;;;;30.37;13.53;;;;;;;;;;6338281;22;20180;-86
2022/02/08 04:08:21;;;;;;;25.60;12.60;;;;;;;;;;6310740;22;20229;-86
2022/02/08 04:10:49;;;;;;;35.20;13.00;;;;;;;;;;6337866;22;20577;-86
2022/02/08 04:13:20;;;;;;;24.87;12.57;;;;;;;;;;6338601;22;20634;-86
2022/02/08 04:16:02;;;;;;;22.03;11.63;;;;;;;;;;6338124;22;20169;-86
2022/02/08 04:18:52;;;;;;;23.73;10.73;;;;;;;;;;6337928;22;20304;-86
2022/02/08 04:32:41;;;;;;;19.30;10.07;;;;;;;;;;6337882;22;20222;-86
2022/02/08 04:35:35;;;;;;;16.27;9.47;;;;;;;;;;6338286;22;20173;-86
2022/02/08 04:38:14;;;;;;;19.40;10.30;;;;;;;;;;6337879;22;20176;-86
2022/02/08 04:40:58;;;;;;;20.27;9.60;;;;;;;;;;6337352;22;20188;-84
2022/02/08 04:43:44;;;;;;;18.73;9.77;;;;;;;;;;6337838;22;20189;-84
2022/02/08 04:46:24;;;;;;;20.43;9.20;;;;;;;;;;6337736;22;20676;-84
2022/02/08 04:48:54;;;;;;;22.33;9.60;;;;;;;;;;6337548;22;20194;-84
2022/02/08 04:51:29;;;;;;;20.40;9.10;;;;;;;;;;6337407;22;20638;-84
2022/02/08 04:54:07;;;;;;;16.53;8.73;;;;;;;;;;6337730;22;20165;-84
2022/02/08 04:56:52;;;;;;;20.83;9.60;;;;;;;;;;6337962;22;20641;-84
2022/02/08 04:59:33;;;;;;;23.23;9.30;;;;;;;;;;6337578;22;20672;-84
2022/02/08 05:02:26;;;;;;;16.40;8.10;;;;;;;;;;6337688;22;20169;-84
2022/02/08 05:35:36;;;;;;;24.57;8.43;;;;;;;;;;5979133;24;20516;-84
2022/02/08 05:44:04;;;;;;;14.93;7.77;;;;;;;;;;5979356;24;20287;-84
2022/02/08 05:49:28;;;;;;;14.73;7.20;;;;;;;;;;6093196;23;20257;-83
2022/02/08 05:52:21;;;;;;;10.43;5.93;;;;;;;;;;6093105;23;20194;-84
2022/02/08 05:54:48;;;;;;;11.87;6.20;;;;;;;;;;6092884;23;20184;-84
2022/02/08 05:57:18;;;;;;;9.83;5.70;;;;;;;;;;6092873;23;20239;-84
2022/02/08 05:59:45;;;;;;;11.37;5.80;;;;;;;;;;6092967;23;20179;-84
2022/02/08 06:02:12;;;;;;;8.23;5.17;;;;;;;;;;6093853;23;20175;-84
2022/02/08 06:04:40;;;;;;;7.97;5.63;;;;;;;;;;6094947;23;20178;-84
2022/02/08 06:07:07;;;;;;;10.63;6.13;;;;;;;;;;6166770;23;20175;-84
2022/02/08 06:09:34;;;;;;;9.10;5.47;;;;;;;;;;6284109;22;20229;-84
2022/02/08 06:12:02;;;;;;;8.37;4.97;;;;;;;;;;6339215;22;20165;-84
2022/02/08 06:14:32;;;;;;;7.10;4.70;;;;;;;;;;6339447;22;20173;-84
2022/02/08 06:17:00;;;;;;;6.80;4.40;;;;;;;;;;6339054;22;20538;-83
2022/02/08 06:19:27;;;;;;;5.97;4.13;;;;;;;;;;6338716;22;20195;-84
2022/02/08 06:21:54;;;;;;;7.13;4.40;;;;;;;;;;6338360;22;20678;-84
2022/02/08 06:24:21;;;;;;;6.70;4.23;;;;;;;;;;6325911;22;20317;-85
2022/02/08 06:26:49;;;;;;;6.43;3.87;;;;;;;;;;6339149;22;20193;-84
2022/02/08 06:29:21;;;;;;;7.53;4.20;;;;;;;;;;6338918;22;20172;-84
2022/02/08 06:31:50;;;;;;;4.70;3.50;;;;;;;;;;6339071;22;20178;-84
2022/02/08 06:34:21;;;;;;;6.20;4.07;;;;;;;;;;6338807;22;20553;-84
2022/02/08 06:36:53;;;;;;;6.20;3.90;;;;;;;;;;6338502;22;20171;-83
2022/02/08 06:39:21;;;;;;;6.13;4.20;;;;;;;;;;6338770;22;20169;-84
2022/02/08 06:41:48;;;;;;;7.43;4.70;;;;;;;;;;6339046;22;20700;-83
2022/02/08 06:44:15;;;;;;;5.93;4.20;;;;;;;;;;6338529;22;20166;-84
2022/02/08 06:46:43;;;;;;;5.53;3.50;;;;;;;;;;6338609;22;20208;-83
2022/02/08 06:49:11;;;;;;;5.07;3.63;;;;;;;;;;6338480;22;20187;-84
2022/02/08 06:51:39;;;;;;;6.17;3.87;;;;;;;;;;6338234;22;20522;-83
2022/02/08 06:54:06;;;;;;;4.70;3.53;;;;;;;;;;6338634;22;20209;-84
2022/02/08 06:56:33;;;;;;;6.00;4.23;;;;;;;;;;6339061;22;20215;-84
2022/02/08 06:59:06;;;;;;;6.77;4.70;;;;;;;;;;6338811;22;20176;-84
2022/02/08 07:01:35;;;;;;;7.60;4.90;;;;;;;;;;6338418;22;20194;-84
2022/02/08 07:04:03;;;;;;;8.20;4.83;;;;;;;;;;6338972;22;20256;-84
2022/02/08 07:06:32;;;;;;;8.27;5.57;;;;;;;;;;6338098;22;20240;-84
2022/02/08 07:08:59;;;;;;;8.20;4.73;;;;;;;;;;6338411;22;20208;-83
2022/02/08 07:11:27;;;;;;;7.50;4.83;;;;;;;;;;6338189;22;20173;-84
2022/02/08 07:13:54;;;;;;;8.20;5.60;;;;;;;;;;6338413;22;20172;-84
2022/02/08 07:16:22;;;;;;;9.03;5.60;;;;;;;;;;6326052;22;20234;-84
2022/02/08 07:18:49;;;;;;;8.23;5.47;;;;;;;;;;6338609;22;20498;-84
2022/02/08 07:21:16;;;;;;;8.00;5.10;;;;;;;;;;6338062;22;20192;-84
2022/02/08 07:23:45;;;;;;;8.83;5.60;;;;;;;;;;6337711;22;20221;-84
2022/02/08 07:26:12;;;;;;;8.13;5.50;;;;;;;;;;6338463;22;20193;-84
2022/02/08 07:28:42;;;;;;;8.00;5.63;;;;;;;;;;6337967;22;20189;-84
2022/02/08 07:31:14;;;;;;;11.53;6.63;;;;;;;;;;6338633;22;20170;-84
2022/02/08 07:33:48;;;;;;;10.77;6.90;;;;;;;;;;6337807;22;20562;-84
2022/02/08 07:36:24;;;;;;;9.87;6.30;;;;;;;;;;6338300;22;20172;-83
2022/02/08 07:38:53;;;;;;;10.10;6.23;;;;;;;;;;6338134;22;20167;-84
2022/02/08 07:41:37;;;;;;;9.47;5.87;;;;;;;;;;6337836;22;20544;-83
2022/02/08 07:44:05;;;;;;;14.87;8.93;;;;;;;;;;6338395;22;20247;-84
2022/02/08 07:46:32;;;;;;;11.37;7.77;;;;;;;;;;6338171;22;20186;-84
2022/02/08 07:49:01;;;;;;;11.17;6.70;;;;;;;;;;6337983;22;20199;-83
2022/02/08 07:51:28;;;;;;;9.93;6.67;;;;;;;;;;6338661;22;20167;-83
2022/02/08 07:53:57;;;;;;;9.13;6.00;;;;;;;;;;6337840;22;20657;-84
2022/02/08 07:56:24;;;;;;;8.50;5.50;;;;;;;;;;6337369;22;20262;-84
2022/02/08 07:58:51;;;;;;;10.53;6.60;;;;;;;;;;6337849;22;20250;-86
2022/02/08 08:01:18;;;;;;;15.40;9.17;;;;;;;;;;6337634;22;20271;-86
2022/02/08 08:03:46;;;;;;;20.63;14.40;;;;;;;;;;6337718;22;20646;-86
2022/02/08 08:06:14;;;;;;;20.60;14.97;;;;;;;;;;6338246;22;20188;-86
2022/02/08 08:08:42;;;;;;;18.47;13.63;;;;;;;;;;6338283;22;20173;-86
2022/02/08 08:11:14;;;;;;;14.57;11.10;;;;;;;;;;6337660;22;20179;-86
2022/02/08 08:13:47;;;;;;;15.37;11.00;;;;;;;;;;6336524;22;20200;-86
2022/02/08 08:16:38;;;;;;;12.53;8.73;;;;;;;;;;6337523;22;20176;-86
2022/02/08 08:19:18;;;;;;;10.30;7.37;;;;;;;;;;6336803;22;20639;-86
2022/02/08 08:21:47;;;;;;;8.37;5.73;;;;;;;;;;6337406;22;20224;-87
2022/02/08 08:24:14;;;;;;;6.93;4.90;;;;;;;;;;6336869;22;20617;-86
2022/02/08 08:26:43;;;;;;;9.47;5.30;;;;;;;;;;6337346;22;20195;-86
2022/02/08 08:29:10;;;;;;;8.13;6.87;;;;;;;;;;6337889;22;20515;-86
2022/02/08 08:31:37;;;;;;;5.77;4.53;;;;;;;;;;6337537;22;20168;-86
2022/02/08 08:34:04;;;;;;;5.77;4.03;;;;;;;;;;6337940;22;20210;-86
2022/02/08 08:36:31;;;;;;;7.00;5.20;;;;;;;;;;6337755;22;20244;-86
2022/02/08 08:38:59;;;;;;;3.83;2.73;;;;;;;;;;6337107;22;20705;-86
2022/02/08 08:41:32;;;;;;;3.00;2.30;;;;;;;;;;6337658;22;20225;-86
2022/02/08 08:49:56;;;;;;;3.70;2.37;;;;;;;;;;6212156;23;20648;-86
2022/02/08 08:52:31;;;;;;;4.70;3.13;;;;;;;;;;6211760;23;20168;-87
2022/02/08 08:54:59;;;;;;;5.10;3.43;;;;;;;;;;6212151;23;20168;-86
2022/02/08 08:57:26;;;;;;;5.93;4.00;;;;;;;;;;6211769;23;20240;-87
2022/02/08 08:59:55;;;;;;;4.50;3.43;;;;;;;;;;6212361;23;20167;-87
2022/02/08 09:02:23;;;;;;;7.17;4.80;;;;;;;;;;6212012;23;20596;-87
2022/02/08 09:04:51;;;;;;;6.43;4.20;;;;;;;;;;6213064;23;20643;-88
2022/02/08 09:07:19;;;;;;;6.23;4.20;;;;;;;;;;6212237;23;20178;-88
2022/02/08 09:09:49;;;;;;;5.87;3.97;;;;;;;;;;6212266;23;20238;-88
2022/02/08 09:12:24;;;;;;;9.77;7.33;;;;;;;;;;6212218;23;20179;-88
2022/02/08 09:17:59;;;;;;;20.57;15.93;;;;;;;;;;6122474;23;20205;-88
2022/02/08 09:26:27;;;;;;;10.70;7.80;;;;;;;;;;6123029;23;20994;-88
2022/02/08 09:28:57;;;;;;;7.93;5.90;;;;;;;;;;6122342;23;20178;-88
2022/02/08 09:31:25;;;;;;;8.23;5.37;;;;;;;;;;6122533;23;20233;-89
2022/02/08 09:33:53;;;;;;;8.37;5.30;;;;;;;;;;6122790;23;20180;-88
2022/02/08 09:36:24;;;;;;;5.97;4.53;;;;;;;;;;6122221;23;20180;-88
2022/02/08 09:38:52;;;;;;;6.50;4.37;;;;;;;;;;6124432;23;20522;-88
2022/02/08 09:41:22;;;;;;;5.97;3.63;;;;;;;;;;6124575;23;20282;-88
2022/02/08 09:43:50;;;;;;;5.50;3.33;;;;;;;;;;6125122;23;20201;-88
2022/02/08 09:46:17;;;;;;;5.83;3.40;;;;;;;;;;6100745;23;20514;-88
2022/02/08 09:48:50;;;;;;;4.60;2.83;;;;;;;;;;6125461;23;20227;-88
2022/02/08 09:51:22;;;;;;;5.07;3.03;;;;;;;;;;6125299;23;20659;-88
2022/02/08 09:53:56;;;;;;;4.80;3.50;;;;;;;;;;6133779;23;20725;-88
2022/02/08 09:56:24;;;;;;;3.70;3.00;;;;;;;;;;6241854;22;20230;-88
2022/02/08 09:58:51;;;;;;;4.00;3.10;;;;;;;;;;6340548;22;20165;-88
2022/02/08 10:01:21;;;;;;;4.50;3.40;;;;;;;;;;6339371;22;20668;-88
2022/02/08 10:03:52;;;;;;;4.50;3.33;;;;;;;;;;6341721;22;20168;-88
2022/02/08 10:06:21;;;;;;;4.90;3.40;;;;;;;;;;6342005;22;20184;-88
2022/02/08 10:08:58;;;;;;;4.87;3.40;;;;;;;;;;6342776;22;20569;-87
2022/02/08 10:11:29;;;;;;;5.53;3.50;;;;;;;;;;6340429;22;20167;-88
2022/02/08 10:14:05;;;;;;;5.27;3.53;;;;;;;;;;6339042;22;20260;-88
2022/02/08 10:22:12;;;;;;;6.60;4.73;;;;;;;;;;6339560;22;20197;-88
2022/02/08 10:24:49;;;;;;;5.83;4.30;;;;;;;;;;6339338;22;20744;-89
2022/02/08 10:27:26;;;;;;;5.47;3.90;;;;;;;;;;6339135;22;20165;-86
2022/02/08 10:30:15;;;;;;;6.23;3.70;;;;;;;;;;6339793;22;20172;-89
2022/02/08 10:38:37;;;;;;;5.40;4.03;;;;;;;;;;6339373;22;20171;-89
2022/02/08 10:41:11;;;;;;;8.00;4.30;;;;;;;;;;6339372;22;20191;-88
2022/02/08 10:43:39;;;;;;;6.90;4.70;;;;;;;;;;6338833;22;20519;-89
2022/02/08 10:46:06;;;;;;;6.03;4.03;;;;;;;;;;6339535;22;20175;-88
2022/02/08 10:48:33;;;;;;;5.97;4.30;;;;;;;;;;6338934;22;20199;-88
2022/02/08 10:51:01;;;;;;;7.23;4.60;;;;;;;;;;6339323;22;20512;-88
2022/02/08 10:53:38;;;;;;;5.93;4.03;;;;;;;;;;6339029;22;20607;-88
2022/02/08 10:56:10;;;;;;;5.67;3.93;;;;;;;;;;6339297;22;20172;-88
2022/02/08 10:58:42;;;;;;;6.43;4.10;;;;;;;;;;6337356;22;20167;-90
2022/02/08 11:01:14;;;;;;;6.40;3.37;;;;;;;;;;6340226;22;20174;-90
2022/02/08 11:03:49;;;;;;;5.23;3.67;;;;;;;;;;6339071;22;20530;-85
2022/02/08 11:06:23;;;;;;;5.10;3.77;;;;;;;;;;6338496;22;20202;-86
2022/02/08 11:09:13;;;;;;;5.10;3.50;;;;;;;;;;6338376;22;20524;-86
2022/02/08 11:11:53;;;;;;;6.67;3.47;;;;;;;;;;6329571;22;20175;-86
2022/02/08 11:14:34;;;;;;;4.53;3.00;;;;;;;;;;6338627;22;20172;-86
2022/02/08 11:19:54;;;;;;;4.37;3.30;;;;;;;;;;6315037;22;20623;-88
2022/02/08 11:22:52;;;;;;;5.73;3.63;;;;;;;;;;6341279;22;20208;-89
2022/02/08 11:25:25;;;;;;;4.10;3.13;;;;;;;;;;6341345;22;20165;-88
2022/02/08 11:27:56;;;;;;;4.40;3.30;;;;;;;;;;6340249;22;20255;-89
2022/02/08 11:30:34;;;;;;;5.30;3.70;;;;;;;;;;6339601;22;20194;-88
2022/02/08 11:33:18;;;;;;;5.97;4.20;;;;;;;;;;6339611;22;20165;-89
2022/02/08 11:53:29;;;;;;;6.60;4.60;;;;;;;;;;6317940;22;20172;-87
2022/02/08 11:59:00;;;;;;;6.20;4.63;;;;;;;;;;6337022;22;20169;-89
2022/02/08 12:01:44;;;;;;;6.03;4.20;;;;;;;;;;6338081;22;20169;-89
2022/02/08 12:10:30;;;;;;;5.90;4.20;;;;;;;;;;6338988;22;20169;-89
2022/02/08 12:13:39;;;;;;;;;;;;;;;;;;;;;
2022/02/08 12:33:25;;;;;;;11.87;6.57;;;;;;;;;;6094671;23;20171;-89
2022/02/08 12:36:10;;;;;;;14.33;7.30;;;;;;;;;;6094660;23;20174;-89
2022/02/08 12:55:55;;;;;;;17.63;8.63;;;;;;;;;;6085805;23;20180;-89
2022/02/08 12:58:46;;;;;;;17.03;8.67;;;;;;;;;;6094453;23;20208;-90
2022/02/08 13:01:35;;;;;;;15.40;8.60;;;;;;;;;;6147811;23;20174;-90
2022/02/08 13:04:15;;;;;;;15.70;8.00;;;;;;;;;;6213771;23;20229;-89
2022/02/08 14:03:19;;;;;;;16.60;8.07;;;;;;;;;;6085146;23;20246;-90
2022/02/08 14:06:03;;;;;;;15.07;8.10;;;;;;;;;;6093727;23;20177;-90
2022/02/08 14:08:53;;;;;;;16.37;8.93;;;;;;;;;;6084609;23;20180;-90
2022/02/08 14:17:24;;;;;;;15.83;8.37;;;;;;;;;;6212645;23;20691;-90
2022/02/08 14:19:52;;;;;;;17.50;8.13;;;;;;;;;;6211887;23;20255;-90
2022/02/08 14:22:33;;;;;;;14.63;7.67;;;;;;;;;;6257857;22;20203;-89
2022/02/08 14:25:21;;;;;;;13.93;8.33;;;;;;;;;;6340103;22;20222;-90
2022/02/08 14:30:40;;;;;;;14.77;8.27;;;;;;;;;;6340555;22;20698;-90
2022/02/08 14:33:26;;;;;;;14.37;8.20;;;;;;;;;;6340796;22;20170;-90
2022/02/08 14:36:20;;;;;;;14.73;8.10;;;;;;;;;;6340454;22;20230;-89
2022/02/08 14:57:33;;;;;;;16.13;8.23;;;;;;;;;;6338607;22;20717;-90
2022/02/08 15:09:38;;;;;;;15.83;8.17;;;;;;;;;;6218120;23;20185;-92
2022/02/08 15:12:11;;;;;;;13.77;7.90;;;;;;;;;;6219565;23;20172;-92
2022/02/08 15:14:47;;;;;;;14.00;7.33;;;;;;;;;;6193354;23;20695;-92
2022/02/08 15:17:14;;;;;;;14.10;8.00;;;;;;;;;;6219503;23;20170;-92
2022/02/08 15:19:44;;;;;;;14.23;8.07;;;;;;;;;;6220768;23;20394;-93
2022/02/08 15:22:14;;;;;;;14.87;8.47;;;;;;;;;;6221274;23;20215;-92
2022/02/08 15:24:42;;;;;;;12.47;7.37;;;;;;;;;;6218182;23;20176;-92
2022/02/08 15:27:12;;;;;;;12.23;7.47;;;;;;;;;;6219004;23;20172;-92
2022/02/08 15:29:39;;;;;;;12.17;7.27;;;;;;;;;;6192638;23;20176;-92
2022/02/08 15:32:12;;;;;;;12.80;6.57;;;;;;;;;;6214557;23;20206;-92
2022/02/08 15:34:40;;;;;;;11.47;7.20;;;;;;;;;;6214794;23;20248;-92
2022/02/08 15:37:07;;;;;;;12.70;7.63;;;;;;;;;;6214276;23;20173;-92
2022/02/08 15:39:36;;;;;;;12.00;7.23;;;;;;;;;;6214732;23;20170;-92
2022/02/08 15:42:03;;;;;;;12.40;7.63;;;;;;;;;;6217380;23;20172;-92
2022/02/08 15:44:32;;;;;;;16.43;8.20;;;;;;;;;;6337404;22;20244;-92
2022/02/08 15:47:03;;;;;;;17.77;8.23;;;;;;;;;;6341995;22;20626;-92
2022/02/08 15:49:33;;;;;;;15.07;7.40;;;;;;;;;;6315215;22;20171;-92
2022/02/08 15:52:14;;;;;;;14.43;7.40;;;;;;;;;;6341623;22;20169;-92
2022/02/08 15:54:49;;;;;;;16.27;7.87;;;;;;;;;;6342179;22;20176;-91
2022/02/08 16:05:52;;;;;;;11.27;6.47;;;;;;;;;;6341126;22;20220;-92
2022/02/08 16:08:27;;;;;;;12.33;5.93;;;;;;;;;;6341914;22;20181;-93
2022/02/08 16:11:06;;;;;;;10.33;7.00;;;;;;;;;;6342666;22;20198;-92
2022/02/08 16:13:44;;;;;;;13.37;7.50;;;;;;;;;;6331939;22;20170;-92
2022/02/08 16:18:59;;;;;;;10.33;6.33;;;;;;;;;;6335631;22;20177;-92
2022/02/08 16:24:29;;;;;;;11.33;7.60;;;;;;;;;;6317221;22;20203;-92
2022/02/08 16:27:18;;;;;;;11.27;6.83;;;;;;;;;;6338946;22;20291;-92
2022/02/08 16:30:04;;;;;;;10.93;7.03;;;;;;;;;;6339062;22;20166;-92
2022/02/08 16:46:38;;;;;;;10.53;5.90;;;;;;;;;;6339955;22;20174;-91
2022/02/08 16:49:24;;;;;;;10.40;6.97;;;;;;;;;;6339288;22;20169;-91
2022/02/08 16:52:28;;;;;;;9.90;6.67;;;;;;;;;;6339055;22;20171;-91
2022/02/08 16:54:59;;;;;;;10.20;6.50;;;;;;;;;;6338688;22;20240;-92
2022/02/08 16:57:35;;;;;;;10.60;6.80;;;;;;;;;;6327705;22;20170;-91
2022/02/08 17:00:06;;;;;;;12.00;7.40;;;;;;;;;;6338952;22;20175;-91
2022/02/08 17:02:37;;;;;;;16.03;10.27;;;;;;;;;;6338640;22;20522;-90
2022/02/08 17:05:04;;;;;;;13.63;9.90;;;;;;;;;;6338694;22;20663;-90
2022/02/08 17:07:36;;;;;;;13.63;9.83;;;;;;;;;;6338705;22;20170;-89
2022/02/08 17:10:06;;;;;;;14.77;10.23;;;;;;;;;;6338438;22;20363;-90
2022/02/08 17:12:39;;;;;;;14.53;10.30;;;;;;;;;;6336687;22;20199;-89
2022/02/08 17:15:36;;;;;;;12.73;8.23;;;;;;;;;;6336793;22;20183;-90
2022/02/08 17:18:32;;;;;;;10.90;7.77;;;;;;;;;;6337368;22;20648;-90
2022/02/08 17:35:11;;;;;;;13.03;8.50;;;;;;;;;;6339634;22;20183;-90
2022/02/08 17:46:10;;;;;;;13.83;8.23;;;;;;;;;;6347289;22;20174;-90
2022/02/08 17:48:39;;;;;;;10.30;7.10;;;;;;;;;;6346675;22;20181;-89
2022/02/08 17:51:07;;;;;;;12.83;7.70;;;;;;;;;;6342382;22;20189;-89
2022/02/08 17:53:34;;;;;;;14.73;8.83;;;;;;;;;;6341496;22;20176;-90
2022/02/08 17:56:03;;;;;;;15.27;10.13;;;;;;;;;;6340701;22;20166;-89
2022/02/08 17:58:30;;;;;;;15.97;9.20;;;;;;;;;;6341593;22;20222;-90
2022/02/08 18:00:58;;;;;;;13.53;8.90;;;;;;;;;;6314084;22;20254;-89
2022/02/08 18:03:43;;;;;;;18.47;11.30;;;;;;;;;;6341804;22;20195;-89
2022/02/08 18:06:12;;;;;;;15.77;10.90;;;;;;;;;;6340270;22;20805;-89
2022/02/08 18:08:41;;;;;;;16.17;9.87;;;;;;;;;;6340517;22;20179;-89
2022/02/08 18:11:09;;;;;;;14.43;9.20;;;;;;;;;;6339101;22;20167;-89
2022/02/08 18:13:40;;;;;;;16.80;9.77;;;;;;;;;;6339974;22;20199;-89
2022/02/08 18:16:07;;;;;;;14.80;8.73;;;;;;;;;;6340410;22;20175;-89
2022/02/08 18:18:40;;;;;;;12.17;8.20;;;;;;;;;;6340335;22;20171;-89
2022/02/08 18:21:13;;;;;;;14.07;9.37;;;;;;;;;;6341382;22;20173;-90
2022/02/08 18:57:31;;;;;;;18.90;12.63;;;;;;;;;;6183139;23;20203;-89
2022/02/08 19:08:32;;;;;;;22.47;14.17;;;;;;;;;;6181067;23;20634;-89
2022/02/08 19:19:50;;;;;;;22.20;14.10;;;;;;;;;;6080933;23;20554;-89
2022/02/08 19:22:18;;;;;;;16.60;9.93;;;;;;;;;;6094219;23;20715;-89
2022/02/08 19:24:45;;;;;;;16.70;9.43;;;;;;;;;;6093569;23;20195;-90
2022/02/08 19:27:16;;;;;;;16.77;9.37;;;;;;;;;;6095092;23;20175;-89
2022/02/08 19:29:45;;;;;;;16.13;9.83;;;;;;;;;;6094312;23;20218;-89
2022/02/08 19:32:12;;;;;;;19.27;11.93;;;;;;;;;;6138709;23;20180;-88
2022/02/08 19:34:40;;;;;;;18.90;11.70;;;;;;;;;;6229325;23;20170;-89
2022/02/08 19:37:08;;;;;;;20.80;12.27;;;;;;;;;;6243503;23;20175;-89
2022/02/08 19:39:36;;;;;;;18.60;11.83;;;;;;;;;;6246137;22;20167;-88
2022/02/08 19:42:04;;;;;;;21.27;12.73;;;;;;;;;;6246440;23;20226;-88
2022/02/08 19:44:31;;;;;;;21.63;14.90;;;;;;;;;;6243970;23;20197;-89
2022/02/08 19:47:02;;;;;;;16.50;10.67;;;;;;;;;;6265875;22;20199;-89
2022/02/08 19:50:03;;;;;;;17.03;10.13;;;;;;;;;;6341959;22;20195;-89
2022/02/08 19:52:32;;;;;;;15.67;10.23;;;;;;;;;;6340943;22;20189;-89
2022/02/08 19:55:22;;;;;;;15.80;9.87;;;;;;;;;;6342884;22;20222;-90
2022/02/08 19:58:10;;;;;;;16.70;9.53;;;;;;;;;;6341060;22;20623;-89
2022/02/08 20:00:41;;;;;;;20.17;13.63;;;;;;;;;;6340682;22;20184;-89
2022/02/08 20:03:12;;;;;;;18.30;12.27;;;;;;;;;;6342288;22;20469;-89
2022/02/08 20:05:42;;;;;;;17.23;10.87;;;;;;;;;;6341290;22;20239;-88
2022/02/08 20:08:45;;;;;;;16.67;10.07;;;;;;;;;;6341351;22;20198;-89
2022/02/08 20:11:13;;;;;;;15.70;9.53;;;;;;;;;;6316450;22;20170;-89
2022/02/08 20:13:50;;;;;;;16.30;10.00;;;;;;;;;;6342607;22;20614;-89
2022/02/08 20:16:17;;;;;;;16.40;10.53;;;;;;;;;;6341049;22;20197;-89
2022/02/08 20:19:03;;;;;;;20.37;12.03;;;;;;;;;;6342647;22;20233;-89
2022/02/08 20:24:50;;;;;;;20.13;12.30;;;;;;;;;;6242382;22;20218;-89
2022/02/08 20:27:46;;;;;;;20.87;12.30;;;;;;;;;;6246831;23;20656;-89
2022/02/08 20:33:08;;;;;;;20.17;12.50;;;;;;;;;;6245133;23;20204;-89
2022/02/08 20:35:39;;;;;;;23.13;12.97;;;;;;;;;;6246337;23;20173;-89
2022/02/08 20:38:08;;;;;;;19.87;12.80;;;;;;;;;;6244257;23;20177;-89
2022/02/08 20:40:40;;;;;;;19.67;13.27;;;;;;;;;;6244653;23;20613;-89
2022/02/08 20:46:22;;;;;;;21.87;13.67;;;;;;;;;;6235976;23;20174;-89
2022/02/08 20:51:53;;;;;;;25.30;15.03;;;;;;;;;;6236829;23;20216;-89
2022/02/08 20:54:25;;;;;;;26.03;15.13;;;;;;;;;;6249975;22;20702;-90
2022/02/08 20:57:02;;;;;;;24.53;14.90;;;;;;;;;;6337621;22;20191;-90
2022/02/08 20:59:30;;;;;;;22.03;13.60;;;;;;;;;;6327904;22;20171;-89
2022/02/08 21:01:57;;;;;;;22.93;13.67;;;;;;;;;;6339385;22;20709;-90
2022/02/08 21:04:40;;;;;;;22.43;14.20;;;;;;;;;;6338758;22;20547;-90
2022/02/08 21:07:08;;;;;;;23.50;14.47;;;;;;;;;;6339138;22;20175;-90